createdAt,value
2022-12-26T00:00:32.777Z,107.97
2022-12-26T00:03:37.882Z,108.22
2022-12-26T00:06:42.296Z,188.82
2022-12-26T00:09:46.744Z,210.07
2022-12-26T00:12:51.008Z,116.90
2022-12-26T00:15:55.355Z,135.23
2022-12-26T00:19:00.658Z,122.45
2022-12-26T00:22:05.273Z,112.63
2022-12-26T00:25:10.059Z,118.72
2022-12-26T00:28:14.413Z,139.65
2022-12-26T00:31:22.649Z,150.93
2022-12-26T00:34:27.394Z,119.18
2022-12-26T00:37:31.708Z,127.95
2022-12-26T00:40:36.051Z,162.85
2022-12-26T00:43:40.466Z,168.02
2022-12-26T00:46:44.873Z,118.47
2022-12-26T00:50:13.893Z,145.93
2022-12-26T00:53:13.975Z,140.75
2022-12-26T00:56:18.273Z,142.90
2022-12-26T00:59:22.461Z,139.90
2022-12-26T01:02:38.206Z,137.80
2022-12-26T01:05:46.450Z,142.45
2022-12-26T01:08:50.795Z,148.48
2022-12-26T01:11:55.237Z,157.57
2022-12-26T01:15:00.754Z,161.35
2022-12-26T01:18:05.771Z,131.40
2022-12-26T01:21:11.353Z,162.18
2022-12-26T01:24:15.824Z,158.98
2022-12-26T01:27:21.071Z,155.00
2022-12-26T01:30:25.702Z,189.00
2022-12-26T01:33:31.050Z,149.68
2022-12-26T01:36:35.158Z,137.77
2022-12-26T01:39:39.460Z,175.40
2022-12-26T01:42:43.596Z,163.35
2022-12-26T01:45:51.276Z,189.57
2022-12-26T01:49:00.812Z,210.45
2022-12-26T01:52:12.109Z,165.77
2022-12-26T01:55:20.059Z,204.90
2022-12-26T01:58:39.634Z,179.95
2022-12-26T02:01:47.822Z,152.50
2022-12-26T02:05:11.494Z,203.05
2022-12-26T02:08:22.572Z,134.30
2022-12-26T02:11:39.119Z,207.05
2022-12-26T02:14:44.425Z,162.32
2022-12-26T02:17:49.124Z,146.48
2022-12-26T02:21:26.644Z,153.52
2022-12-26T02:25:12.200Z,150.68
2022-12-26T02:28:53.521Z,143.77
2022-12-26T02:32:56.540Z,138.85
2022-12-26T02:36:09.731Z,178.65
2022-12-26T02:39:54.373Z,134.50
2022-12-26T02:43:23.418Z,184.07
2022-12-26T02:47:03.799Z,232.80
2022-12-26T02:50:52.235Z,158.52
2022-12-26T02:54:54.457Z,125.47
2022-12-26T02:58:26.619Z,148.55
2022-12-26T03:01:57.886Z,132.48
2022-12-26T03:05:22.143Z,126.90
2022-12-26T03:09:03.206Z,144.48
2022-12-26T03:12:57.149Z,162.95
2022-12-26T03:16:28.049Z,159.30
2022-12-26T03:19:34.488Z,152.15
2022-12-26T03:22:49.144Z,131.77
2022-12-26T03:29:54.629Z,154.40
2022-12-26T03:32:59.022Z,150.30
2022-12-26T03:36:05.824Z,149.00
2022-12-26T03:39:48.311Z,170.65
2022-12-26T03:43:32.892Z,157.77
2022-12-26T03:47:31.565Z,170.65
2022-12-26T03:51:00.648Z,170.75
2022-12-26T03:54:43.891Z,178.13
2022-12-26T03:58:30.252Z,183.35
2022-12-26T04:01:56.300Z,228.80
2022-12-26T04:05:23.946Z,200.45
2022-12-26T04:09:14.819Z,182.38
2022-12-26T04:12:43.324Z,220.98
2022-12-26T04:16:18.220Z,173.75
2022-12-26T04:20:16.672Z,250.50
2022-12-26T04:24:08.521Z,234.52
2022-12-26T04:27:36.350Z,216.52
2022-12-26T04:31:03.782Z,224.73
2022-12-26T04:34:39.208Z,156.48
2022-12-26T04:38:03.906Z,197.02
2022-12-26T04:41:29.953Z,259.42
2022-12-26T04:44:36.256Z,217.65
2022-12-26T04:48:01.340Z,224.68
2022-12-26T04:51:05.866Z,277.77
2022-12-26T04:54:10.408Z,261.40
2022-12-26T04:57:14.916Z,297.33
2022-12-26T05:00:19.806Z,240.07
2022-12-26T05:03:42.595Z,228.52
2022-12-26T05:07:05.619Z,238.45
2022-12-26T05:10:20.897Z,256.05
2022-12-26T05:13:25.337Z,234.38
2022-12-26T05:16:48.606Z,193.27
2022-12-26T05:20:11.950Z,218.18
2022-12-26T05:23:41.587Z,242.53
2022-12-26T05:27:04.574Z,214.23
2022-12-26T05:30:10.302Z,210.68
2022-12-26T05:33:32.701Z,173.20
2022-12-26T05:36:46.464Z,193.48
2022-12-26T05:39:50.623Z,201.43
2022-12-26T05:42:54.877Z,296.00
2022-12-26T05:45:59.172Z,190.82
2022-12-26T05:49:05.669Z,198.60
2022-12-26T05:52:10.790Z,176.48
2022-12-26T05:55:15.710Z,204.90
2022-12-26T05:58:20.533Z,197.27
2022-12-26T06:01:27.637Z,196.02
2022-12-26T06:04:33.713Z,180.30
2022-12-26T06:07:38.307Z,193.10
2022-12-26T06:10:42.946Z,187.10
2022-12-26T06:13:47.573Z,172.23
2022-12-26T06:16:52.493Z,168.02
2022-12-26T06:19:56.971Z,162.88
2022-12-26T06:26:07.229Z,156.50
2022-12-26T06:29:11.534Z,165.77
2022-12-26T06:32:16.524Z,164.85
2022-12-26T06:35:21.064Z,165.43
2022-12-26T06:38:25.452Z,168.77
2022-12-26T06:41:29.984Z,133.70
2022-12-26T06:44:34.702Z,138.25
2022-12-26T06:47:39.283Z,149.43
2022-12-26T06:50:43.712Z,148.95
2022-12-26T06:53:49.938Z,133.68
2022-12-26T06:56:54.260Z,144.93
2022-12-26T06:59:58.504Z,132.98
2022-12-26T07:03:02.909Z,142.50
2022-12-26T07:06:28.634Z,157.05
2022-12-26T07:09:35.641Z,135.57
2022-12-26T07:12:39.793Z,130.73
2022-12-26T07:15:44.059Z,139.00
2022-12-26T07:18:48.563Z,123.82
2022-12-26T07:24:56.922Z,121.82
2022-12-26T07:28:01.878Z,124.95
2022-12-26T07:31:06.616Z,115.30
2022-12-26T07:34:10.974Z,128.10
2022-12-26T07:37:15.233Z,124.97
2022-12-26T07:43:24.893Z,127.55
2022-12-26T07:46:30.652Z,136.25
2022-12-26T07:49:35.371Z,129.27
2022-12-26T07:52:39.828Z,145.55
2022-12-26T07:55:44.007Z,147.10
2022-12-26T07:58:50.073Z,141.02
2022-12-26T08:01:56.680Z,147.23
2022-12-26T08:05:07.613Z,146.23
2022-12-26T08:08:12.082Z,149.27
2022-12-26T08:11:20.263Z,148.10
2022-12-26T08:14:24.439Z,147.82
2022-12-26T08:17:31.423Z,138.55
2022-12-26T08:20:36.999Z,144.73
2022-12-26T08:23:41.762Z,149.32
2022-12-26T08:26:45.875Z,153.45
2022-12-26T08:29:50.137Z,150.18
2022-12-26T08:36:03.838Z,154.55
2022-12-26T08:39:08.553Z,145.45
2022-12-26T08:42:13.008Z,162.60
2022-12-26T08:45:17.892Z,167.25
2022-12-26T08:48:22.407Z,166.88
2022-12-26T08:54:31.255Z,155.65
2022-12-26T08:57:36.161Z,156.10
2022-12-26T09:00:40.675Z,158.07
2022-12-26T09:03:46.580Z,148.80
2022-12-26T09:06:51.022Z,165.93
2022-12-26T09:09:55.270Z,164.68
2022-12-26T09:13:00.139Z,170.63
2022-12-26T09:16:11.367Z,159.07
2022-12-26T09:19:17.756Z,159.80
2022-12-26T09:22:40.605Z,158.73
2022-12-26T09:25:46.272Z,147.45
2022-12-26T09:28:53.807Z,158.50
2022-12-26T09:31:58.303Z,156.27
2022-12-26T09:35:06.398Z,163.65
2022-12-26T09:38:11.169Z,154.30
2022-12-26T09:41:52.189Z,157.95
2022-12-26T09:45:24.880Z,167.05
2022-12-26T09:48:38.066Z,158.25
2022-12-26T09:51:48.410Z,161.32
2022-12-26T09:55:06.786Z,165.88
2022-12-26T09:58:35.497Z,159.82
2022-12-26T10:01:40.390Z,158.38
2022-12-26T10:04:45.384Z,154.38
2022-12-26T10:08:17.732Z,155.82
2022-12-26T10:11:37.075Z,162.10
2022-12-26T10:15:03.600Z,148.98
2022-12-26T10:18:37.259Z,150.05
2022-12-26T10:22:23.774Z,148.73
2022-12-26T10:25:53.990Z,153.10
2022-12-26T10:29:16.406Z,152.18
2022-12-26T10:32:28.352Z,140.57
2022-12-26T10:35:44.495Z,136.05
2022-12-26T10:38:53.095Z,131.18
2022-12-26T10:42:05.742Z,136.07
2022-12-26T10:45:47.558Z,133.43
2022-12-26T10:48:51.819Z,117.32
2022-12-26T10:51:59.881Z,123.60
2022-12-26T10:55:27.003Z,115.45
2022-12-26T10:58:35.882Z,117.40
2022-12-26T11:01:47.260Z,103.35
2022-12-26T11:05:40.366Z,102.57
2022-12-26T11:08:54.167Z,101.18
2022-12-26T11:11:58.865Z,102.70
2022-12-26T11:15:22.420Z,85.35
2022-12-26T11:18:52.149Z,93.90
2022-12-26T11:22:30.091Z,86.53
2022-12-26T11:25:36.931Z,94.38
2022-12-26T11:28:41.435Z,83.32
2022-12-26T11:32:03.212Z,83.85
2022-12-26T11:35:27.330Z,79.07
2022-12-26T11:38:39.151Z,95.22
2022-12-26T11:41:49.590Z,79.82
2022-12-26T11:45:00.580Z,96.55
2022-12-26T11:48:27.851Z,77.53
2022-12-26T11:51:42.487Z,84.30
2022-12-26T11:54:51.545Z,76.75
2022-12-26T11:58:21.916Z,78.32
2022-12-26T12:01:26.627Z,80.55
2022-12-26T12:04:31.674Z,76.22
2022-12-26T12:08:01.653Z,78.95
2022-12-26T12:11:41.469Z,76.28
2022-12-26T12:15:30.482Z,73.03
2022-12-26T12:19:22.566Z,53.17
2022-12-26T12:23:15.193Z,48.67
2022-12-26T12:26:30.814Z,53.10
2022-12-26T12:29:35.142Z,36.72
2022-12-26T12:33:14.163Z,32.63
2022-12-26T12:36:44.784Z,30.23
2022-12-26T12:40:34.323Z,20.00
2022-12-26T12:44:01.889Z,19.48
2022-12-26T12:47:28.059Z,13.23
2022-12-26T12:51:06.053Z,14.45
2022-12-26T12:55:00.117Z,12.80
2022-12-26T12:58:50.636Z,9.75
2022-12-26T13:02:07.004Z,11.40
2022-12-26T13:05:26.009Z,6.97
2022-12-26T13:08:43.753Z,7.30
2022-12-26T13:12:09.217Z,22.65
2022-12-26T13:15:36.999Z,12.93
2022-12-26T13:18:57.616Z,24.60
2022-12-26T13:22:11.477Z,22.23
2022-12-26T13:25:19.274Z,32.40
2022-12-26T13:28:30.597Z,25.73
2022-12-26T13:31:38.338Z,22.90
2022-12-26T13:34:48.273Z,25.40
2022-12-26T13:37:57.236Z,27.33
2022-12-26T13:41:22.115Z,21.33
2022-12-26T13:44:27.440Z,24.10
2022-12-26T13:47:39.076Z,25.25
2022-12-26T13:50:56.122Z,43.03
2022-12-26T13:54:10.714Z,24.15
2022-12-26T13:57:41.909Z,14.68
2022-12-26T14:00:49.751Z,19.52
2022-12-26T14:04:42.325Z,17.20
2022-12-26T14:08:04.785Z,21.85
2022-12-26T14:11:57.874Z,17.48
2022-12-26T14:15:19.339Z,25.85
2022-12-26T14:18:32.809Z,17.00
2022-12-26T14:22:27.871Z,18.40
2022-12-26T14:25:59.460Z,17.98
2022-12-26T14:29:21.241Z,24.52
2022-12-26T14:32:48.254Z,20.98
2022-12-26T14:36:11.945Z,22.33
2022-12-26T14:39:46.738Z,24.90
2022-12-26T14:43:17.485Z,20.77
2022-12-26T14:46:31.130Z,17.02
2022-12-26T14:49:39.166Z,25.15
2022-12-26T14:52:44.519Z,25.05
2022-12-26T14:55:58.399Z,16.23
2022-12-26T14:59:32.924Z,16.00
2022-12-26T15:02:40.716Z,20.58
2022-12-26T15:05:50.450Z,21.55
2022-12-26T15:09:00.707Z,20.13
2022-12-26T15:12:32.816Z,17.23
2022-12-26T15:16:24.428Z,18.30
2022-12-26T15:20:02.756Z,24.98
2022-12-26T15:23:39.687Z,25.90
2022-12-26T15:27:17.885Z,24.25
2022-12-26T15:30:38.958Z,26.88
2022-12-26T15:33:58.155Z,16.15
2022-12-26T15:37:21.444Z,27.08
2022-12-26T15:41:19.028Z,26.33
2022-12-26T15:44:43.581Z,12.10
2022-12-26T15:51:37.324Z,18.20
2022-12-26T15:54:57.986Z,26.92
2022-12-26T15:58:38.891Z,24.25
2022-12-26T16:01:46.776Z,24.42
2022-12-26T16:05:22.359Z,26.38
2022-12-26T16:08:56.335Z,39.92
2022-12-26T16:12:01.847Z,20.65
2022-12-26T16:15:12.250Z,18.10
2022-12-26T16:18:25.932Z,14.80
2022-12-26T16:21:48.384Z,23.00
2022-12-26T16:24:54.592Z,30.75
2022-12-26T16:28:00.959Z,23.30
2022-12-26T16:31:06.621Z,22.58
2022-12-26T16:34:19.671Z,23.23
2022-12-26T16:37:26.901Z,31.45
2022-12-26T16:40:35.193Z,21.50
2022-12-26T16:43:39.921Z,25.85
2022-12-26T16:46:44.345Z,15.40
2022-12-26T16:49:49.412Z,27.70
2022-12-26T16:53:17.356Z,21.77
2022-12-26T16:56:33.826Z,24.45
2022-12-26T16:59:56.580Z,15.82
2022-12-26T17:03:03.917Z,16.55
2022-12-26T17:06:14.401Z,17.45
2022-12-26T17:09:21.052Z,23.20
2022-12-26T17:12:30.091Z,32.50
2022-12-26T17:15:47.077Z,19.10
2022-12-26T17:19:08.136Z,47.72
2022-12-26T17:22:18.011Z,24.40
2022-12-26T17:25:33.799Z,30.30
2022-12-26T17:28:38.324Z,28.10
2022-12-26T17:31:44.907Z,31.25
2022-12-26T17:34:49.796Z,33.22
2022-12-26T17:38:08.790Z,35.33
2022-12-26T17:41:20.890Z,43.70
2022-12-26T17:44:41.643Z,21.60
2022-12-26T17:47:47.424Z,33.38
2022-12-26T17:51:02.280Z,32.72
2022-12-26T17:54:08.872Z,34.97
2022-12-26T17:57:28.629Z,26.38
2022-12-26T18:00:32.757Z,41.45
2022-12-26T18:03:37.672Z,31.65
2022-12-26T18:06:42.172Z,37.95
2022-12-26T18:09:48.365Z,50.72
2022-12-26T18:12:52.971Z,43.55
2022-12-26T18:15:57.904Z,39.47
2022-12-26T18:19:03.514Z,43.38
2022-12-26T18:22:16.409Z,31.10
2022-12-26T18:25:24.668Z,33.03
2022-12-26T18:28:29.595Z,32.45
2022-12-26T18:31:34.170Z,29.30
2022-12-26T18:34:38.765Z,22.85
2022-12-26T18:37:51.208Z,20.17
2022-12-26T18:40:58.017Z,32.05
2022-12-26T18:44:05.035Z,23.58
2022-12-26T18:47:16.983Z,19.98
2022-12-26T18:50:21.547Z,25.77
2022-12-26T18:53:25.903Z,24.23
2022-12-26T18:56:29.963Z,24.23
2022-12-26T18:59:35.046Z,25.95
2022-12-26T19:02:40.523Z,30.08
2022-12-26T19:05:44.995Z,32.50
2022-12-26T19:08:49.182Z,27.92
2022-12-26T19:11:53.496Z,27.65
2022-12-26T19:14:57.773Z,65.40
2022-12-26T19:18:03.997Z,44.08
2022-12-26T19:21:16.299Z,29.20
2022-12-26T19:24:20.770Z,17.27
2022-12-26T19:27:27.337Z,21.30
2022-12-26T19:30:38.298Z,23.45
2022-12-26T19:33:43.352Z,25.38
2022-12-26T19:36:47.570Z,35.33
2022-12-26T19:39:51.814Z,27.83
2022-12-26T19:42:55.930Z,22.20
2022-12-26T19:46:03.489Z,32.13
2022-12-26T19:49:07.708Z,30.23
2022-12-26T19:52:21.845Z,15.65
2022-12-26T19:55:27.185Z,22.67
2022-12-26T19:58:31.433Z,18.50
2022-12-26T20:01:36.101Z,20.13
2022-12-26T20:04:40.833Z,20.30
2022-12-26T20:07:45.193Z,21.92
2022-12-26T20:10:49.477Z,20.50
2022-12-26T20:13:54.126Z,16.08
2022-12-26T20:17:05.733Z,21.83
2022-12-26T20:20:10.996Z,23.50
2022-12-26T20:23:15.263Z,25.17
2022-12-26T20:26:23.149Z,30.48
2022-12-26T20:29:28.239Z,14.73
2022-12-26T20:32:32.625Z,24.45
2022-12-26T20:35:37.320Z,29.27
2022-12-26T20:38:43.099Z,34.65
2022-12-26T20:41:47.473Z,27.70
2022-12-26T20:44:51.920Z,29.70
2022-12-26T20:47:56.091Z,20.60
2022-12-26T20:51:06.095Z,24.17
2022-12-26T20:54:12.753Z,17.20
2022-12-26T20:57:17.241Z,24.80
2022-12-26T21:00:22.018Z,21.85
2022-12-26T21:03:27.450Z,23.73
2022-12-26T21:06:36.916Z,16.33
2022-12-26T21:09:46.277Z,18.92
2022-12-26T21:12:52.394Z,21.23
2022-12-26T21:15:56.597Z,25.63
2022-12-26T21:19:02.501Z,22.73
2022-12-26T21:22:07.133Z,14.55
2022-12-26T21:25:11.353Z,18.23
2022-12-26T21:28:15.727Z,28.73
2022-12-26T21:31:20.400Z,12.90
2022-12-26T21:34:28.610Z,23.15
2022-12-26T21:37:51.230Z,12.57
2022-12-26T21:40:56.981Z,17.88
2022-12-26T21:44:03.165Z,17.50
2022-12-26T21:47:08.220Z,10.77
2022-12-26T21:50:14.058Z,15.68
2022-12-26T21:53:18.675Z,15.57
2022-12-26T21:56:23.267Z,8.15
2022-12-26T21:59:45.814Z,13.70
2022-12-26T22:03:08.838Z,12.57
2022-12-26T22:06:16.533Z,16.13
2022-12-26T22:09:21.747Z,13.90
2022-12-26T22:12:44.901Z,12.75
2022-12-26T22:16:04.174Z,21.70
2022-12-26T22:19:09.334Z,22.15
2022-12-26T22:22:13.844Z,15.23
2022-12-26T22:25:19.451Z,15.82
2022-12-26T22:28:24.525Z,15.38
2022-12-26T22:31:33.171Z,17.85
2022-12-26T22:34:37.614Z,13.13
2022-12-26T22:37:41.937Z,18.30
2022-12-26T22:40:59.263Z,17.58
2022-12-26T22:44:03.812Z,17.02
2022-12-26T22:47:07.920Z,11.77
2022-12-26T22:50:16.298Z,13.73
2022-12-26T22:53:24.396Z,13.98
2022-12-26T22:56:30.045Z,10.40
2022-12-26T23:00:06.948Z,9.90
2022-12-26T23:06:03.428Z,16.48
2022-12-26T23:09:15.519Z,15.75
2022-12-26T23:12:38.964Z,13.52
2022-12-26T23:15:52.849Z,10.02
2022-12-26T23:19:58.497Z,9.02
2022-12-26T23:26:08.512Z,20.58
2022-12-26T23:29:42.946Z,16.35
2022-12-26T23:32:53.408Z,13.73
2022-12-26T23:35:58.461Z,27.10
2022-12-26T23:39:03.109Z,13.80
2022-12-26T23:42:07.992Z,18.60
2022-12-26T23:45:14.366Z,17.27
2022-12-26T23:48:18.776Z,11.25
2022-12-26T23:51:22.836Z,17.23
2022-12-26T23:54:27.724Z,6.68
2022-12-26T23:57:32.395Z,12.88
